sensor_id;sensor_type;location;lat;lon;timestamp;temperature;humidity
23371;DHT22;11858;51.056;3.712;2023-05-07T00:02:08;17.50;99.90
23371;DHT22;11858;51.056;3.712;2023-05-07T00:04:33;17.50;99.90
23371;DHT22;11858;51.056;3.712;2023-05-07T00:07:03;17.50;99.90
23371;DHT22;11858;51.056;3.712;2023-05-07T00:09:29;17.50;99.90
23371;DHT22;11858;51.056;3.712;2023-05-07T00:11:54;17.40;99.90
23371;DHT22;11858;51.056;3.712;2023-05-07T00:14:20;17.40;99.90
23371;DHT22;11858;51.056;3.712;2023-05-07T00:16:46;17.40;99.90
23371;DHT22;11858;51.056;3.712;2023-05-07T00:19:12;17.40;99.90
23371;DHT22;11858;51.056;3.712;2023-05-07T00:21:37;17.40;99.90
23371;DHT22;11858;51.056;3.712;2023-05-07T00:24:03;17.30;99.90
23371;DHT22;11858;51.056;3.712;2023-05-07T00:26:29;17.40;99.90
23371;DHT22;11858;51.056;3.712;2023-05-07T00:28:55;17.40;99.90
23371;DHT22;11858;51.056;3.712;2023-05-07T00:31:21;17.40;99.90
23371;DHT22;11858;51.056;3.712;2023-05-07T00:33:46;17.40;99.90
23371;DHT22;11858;51.056;3.712;2023-05-07T00:36:12;17.30;99.90
23371;DHT22;11858;51.056;3.712;2023-05-07T00:38:38;17.30;99.90
23371;DHT22;11858;51.056;3.712;2023-05-07T00:41:03;17.30;99.90
23371;DHT22;11858;51.056;3.712;2023-05-07T00:43:29;17.20;99.90
23371;DHT22;11858;51.056;3.712;2023-05-07T00:45:55;17.30;99.90
23371;DHT22;11858;51.056;3.712;2023-05-07T00:48:21;17.30;99.90
23371;DHT22;11858;51.056;3.712;2023-05-07T00:50:47;17.20;99.90
23371;DHT22;11858;51.056;3.712;2023-05-07T00:53:13;17.10;99.90
23371;DHT22;11858;51.056;3.712;2023-05-07T00:55:40;17.10;99.90
23371;DHT22;11858;51.056;3.712;2023-05-07T00:58:06;17.10;99.90
23371;DHT22;11858;51.056;3.712;2023-05-07T01:00:31;17.20;99.90
23371;DHT22;11858;51.056;3.712;2023-05-07T01:02:58;17.20;99.90
23371;DHT22;11858;51.056;3.712;2023-05-07T01:05:24;17.20;99.90
23371;DHT22;11858;51.056;3.712;2023-05-07T01:07:52;17.20;99.90
23371;DHT22;11858;51.056;3.712;2023-05-07T01:10:19;17.10;99.90
23371;DHT22;11858;51.056;3.712;2023-05-07T01:12:45;17.20;99.90
23371;DHT22;11858;51.056;3.712;2023-05-07T01:15:12;17.20;99.90
23371;DHT22;11858;51.056;3.712;2023-05-07T01:17:40;17.10;99.90
23371;DHT22;11858;51.056;3.712;2023-05-07T01:20:07;17.10;99.90
23371;DHT22;11858;51.056;3.712;2023-05-07T01:22:38;17.10;99.90
23371;DHT22;11858;51.056;3.712;2023-05-07T01:25:05;17.10;99.90
23371;DHT22;11858;51.056;3.712;2023-05-07T01:27:31;17.00;99.90
23371;DHT22;11858;51.056;3.712;2023-05-07T01:29:59;17.00;99.90
23371;DHT22;11858;51.056;3.712;2023-05-07T01:32:47;17.00;99.90
23371;DHT22;11858;51.056;3.712;2023-05-07T01:35:22;16.90;99.90
23371;DHT22;11858;51.056;3.712;2023-05-07T01:37:50;16.90;99.90
23371;DHT22;11858;51.056;3.712;2023-05-07T01:40:16;16.80;99.90
23371;DHT22;11858;51.056;3.712;2023-05-07T01:42:43;16.70;99.90
23371;DHT22;11858;51.056;3.712;2023-05-07T01:45:10;16.70;99.90
23371;DHT22;11858;51.056;3.712;2023-05-07T01:47:36;16.70;99.90
23371;DHT22;11858;51.056;3.712;2023-05-07T01:50:05;16.60;99.90
23371;DHT22;11858;51.056;3.712;2023-05-07T01:52:31;16.60;99.90
23371;DHT22;11858;51.056;3.712;2023-05-07T01:54:56;16.60;99.90
23371;DHT22;11858;51.056;3.712;2023-05-07T01:57:22;16.60;99.90
23371;DHT22;11858;51.056;3.712;2023-05-07T01:59:48;16.70;99.90
23371;DHT22;11858;51.056;3.712;2023-05-07T02:02:13;16.60;99.90
23371;DHT22;11858;51.056;3.712;2023-05-07T02:04:39;16.60;99.90
23371;DHT22;11858;51.056;3.712;2023-05-07T02:07:05;16.70;99.90
23371;DHT22;11858;51.056;3.712;2023-05-07T02:09:30;16.70;99.90
23371;DHT22;11858;51.056;3.712;2023-05-07T02:11:56;16.70;99.90
23371;DHT22;11858;51.056;3.712;2023-05-07T02:14:22;16.60;99.90
23371;DHT22;11858;51.056;3.712;2023-05-07T02:16:47;16.70;99.90
23371;DHT22;11858;51.056;3.712;2023-05-07T02:19:13;16.70;99.90
23371;DHT22;11858;51.056;3.712;2023-05-07T02:21:38;16.70;99.90
23371;DHT22;11858;51.056;3.712;2023-05-07T02:24:05;16.70;99.90
23371;DHT22;11858;51.056;3.712;2023-05-07T02:26:30;16.60;99.90
23371;DHT22;11858;51.056;3.712;2023-05-07T02:28:56;16.60;99.90
23371;DHT22;11858;51.056;3.712;2023-05-07T02:31:22;16.60;99.90
23371;DHT22;11858;51.056;3.712;2023-05-07T02:33:47;16.60;99.90
23371;DHT22;11858;51.056;3.712;2023-05-07T02:36:13;16.50;99.90
23371;DHT22;11858;51.056;3.712;2023-05-07T02:38:39;16.50;99.90
23371;DHT22;11858;51.056;3.712;2023-05-07T02:41:04;16.50;99.90
23371;DHT22;11858;51.056;3.712;2023-05-07T02:43:30;16.50;99.90
23371;DHT22;11858;51.056;3.712;2023-05-07T02:46:03;16.50;99.90
23371;DHT22;11858;51.056;3.712;2023-05-07T02:48:29;16.50;99.90
23371;DHT22;11858;51.056;3.712;2023-05-07T02:50:55;16.40;99.90
23371;DHT22;11858;51.056;3.712;2023-05-07T02:53:21;16.40;99.90
23371;DHT22;11858;51.056;3.712;2023-05-07T02:55:46;16.50;99.90
23371;DHT22;11858;51.056;3.712;2023-05-07T02:58:12;16.50;99.90
23371;DHT22;11858;51.056;3.712;2023-05-07T03:00:38;16.50;99.90
23371;DHT22;11858;51.056;3.712;2023-05-07T03:03:03;16.50;99.90
23371;DHT22;11858;51.056;3.712;2023-05-07T03:05:29;16.50;99.90
23371;DHT22;11858;51.056;3.712;2023-05-07T03:07:55;16.50;99.90
23371;DHT22;11858;51.056;3.712;2023-05-07T03:10:20;16.50;99.90
23371;DHT22;11858;51.056;3.712;2023-05-07T03:12:46;16.50;99.90
23371;DHT22;11858;51.056;3.712;2023-05-07T03:15:11;16.50;99.90
23371;DHT22;11858;51.056;3.712;2023-05-07T03:17:38;16.50;99.90
23371;DHT22;11858;51.056;3.712;2023-05-07T03:20:04;16.50;99.90
23371;DHT22;11858;51.056;3.712;2023-05-07T03:22:30;16.60;99.90
23371;DHT22;11858;51.056;3.712;2023-05-07T03:24:56;16.50;99.90
23371;DHT22;11858;51.056;3.712;2023-05-07T03:27:22;16.40;99.90
23371;DHT22;11858;51.056;3.712;2023-05-07T03:29:48;16.40;99.90
23371;DHT22;11858;51.056;3.712;2023-05-07T03:32:13;16.40;99.90
23371;DHT22;11858;51.056;3.712;2023-05-07T03:34:39;16.40;99.90
23371;DHT22;11858;51.056;3.712;2023-05-07T03:37:05;16.40;99.90
23371;DHT22;11858;51.056;3.712;2023-05-07T03:39:31;16.50;99.90
23371;DHT22;11858;51.056;3.712;2023-05-07T03:41:57;16.50;99.90
23371;DHT22;11858;51.056;3.712;2023-05-07T03:44:23;16.50;99.90
23371;DHT22;11858;51.056;3.712;2023-05-07T03:46:49;16.50;99.90
23371;DHT22;11858;51.056;3.712;2023-05-07T03:49:14;16.60;99.90
23371;DHT22;11858;51.056;3.712;2023-05-07T03:51:40;16.60;99.90
23371;DHT22;11858;51.056;3.712;2023-05-07T03:54:06;16.60;99.90
23371;DHT22;11858;51.056;3.712;2023-05-07T03:56:32;16.60;99.90
23371;DHT22;11858;51.056;3.712;2023-05-07T03:58:57;16.60;99.90
23371;DHT22;11858;51.056;3.712;2023-05-07T04:01:23;16.60;99.90
23371;DHT22;11858;51.056;3.712;2023-05-07T04:03:49;16.60;99.90
23371;DHT22;11858;51.056;3.712;2023-05-07T04:06:16;16.60;99.90
23371;DHT22;11858;51.056;3.712;2023-05-07T04:08:42;16.60;99.90
23371;DHT22;11858;51.056;3.712;2023-05-07T04:11:08;16.50;99.90
23371;DHT22;11858;51.056;3.712;2023-05-07T04:13:34;16.60;99.90
23371;DHT22;11858;51.056;3.712;2023-05-07T04:16:01;16.60;99.90
23371;DHT22;11858;51.056;3.712;2023-05-07T04:18:27;16.60;99.90
23371;DHT22;11858;51.056;3.712;2023-05-07T04:20:53;16.60;99.90
23371;DHT22;11858;51.056;3.712;2023-05-07T04:23:19;16.60;99.90
23371;DHT22;11858;51.056;3.712;2023-05-07T04:25:44;16.50;99.90
23371;DHT22;11858;51.056;3.712;2023-05-07T04:28:10;16.50;99.90
23371;DHT22;11858;51.056;3.712;2023-05-07T04:30:37;16.50;99.90
23371;DHT22;11858;51.056;3.712;2023-05-07T04:33:03;16.50;99.90
23371;DHT22;11858;51.056;3.712;2023-05-07T04:35:28;16.50;99.90
23371;DHT22;11858;51.056;3.712;2023-05-07T04:37:54;16.50;99.90
23371;DHT22;11858;51.056;3.712;2023-05-07T04:40:20;16.50;99.90
23371;DHT22;11858;51.056;3.712;2023-05-07T04:42:46;16.50;99.90
23371;DHT22;11858;51.056;3.712;2023-05-07T04:45:11;16.50;99.90
23371;DHT22;11858;51.056;3.712;2023-05-07T04:47:38;16.50;99.90
23371;DHT22;11858;51.056;3.712;2023-05-07T04:50:05;16.50;99.90
23371;DHT22;11858;51.056;3.712;2023-05-07T04:52:31;16.50;99.90
23371;DHT22;11858;51.056;3.712;2023-05-07T04:54:59;16.50;99.90
23371;DHT22;11858;51.056;3.712;2023-05-07T04:57:25;16.50;99.90
23371;DHT22;11858;51.056;3.712;2023-05-07T04:59:52;16.50;99.90
23371;DHT22;11858;51.056;3.712;2023-05-07T05:02:17;16.50;99.90
23371;DHT22;11858;51.056;3.712;2023-05-07T05:04:43;16.40;99.90
23371;DHT22;11858;51.056;3.712;2023-05-07T05:07:08;16.50;99.90
23371;DHT22;11858;51.056;3.712;2023-05-07T05:09:34;16.60;99.90
23371;DHT22;11858;51.056;3.712;2023-05-07T05:12:00;16.60;99.90
23371;DHT22;11858;51.056;3.712;2023-05-07T05:14:25;16.60;99.90
23371;DHT22;11858;51.056;3.712;2023-05-07T05:16:51;16.70;99.90
23371;DHT22;11858;51.056;3.712;2023-05-07T05:19:17;16.70;99.90
23371;DHT22;11858;51.056;3.712;2023-05-07T05:21:43;16.70;99.90
23371;DHT22;11858;51.056;3.712;2023-05-07T05:24:08;16.60;99.90
23371;DHT22;11858;51.056;3.712;2023-05-07T05:26:34;16.40;99.90
23371;DHT22;11858;51.056;3.712;2023-05-07T05:29:00;16.50;99.90
23371;DHT22;11858;51.056;3.712;2023-05-07T05:31:25;16.50;99.90
23371;DHT22;11858;51.056;3.712;2023-05-07T05:33:51;16.60;99.90
23371;DHT22;11858;51.056;3.712;2023-05-07T05:36:17;16.50;99.90
23371;DHT22;11858;51.056;3.712;2023-05-07T05:38:43;16.40;99.90
23371;DHT22;11858;51.056;3.712;2023-05-07T05:41:09;16.40;99.90
23371;DHT22;11858;51.056;3.712;2023-05-07T05:43:35;16.40;99.90
23371;DHT22;11858;51.056;3.712;2023-05-07T05:46:01;16.20;99.90
23371;DHT22;11858;51.056;3.712;2023-05-07T05:48:27;16.10;99.90
23371;DHT22;11858;51.056;3.712;2023-05-07T05:50:52;16.10;99.90
23371;DHT22;11858;51.056;3.712;2023-05-07T05:53:18;16.10;99.90
23371;DHT22;11858;51.056;3.712;2023-05-07T05:55:44;16.00;99.90
23371;DHT22;11858;51.056;3.712;2023-05-07T05:58:10;15.80;99.90
23371;DHT22;11858;51.056;3.712;2023-05-07T06:00:36;15.80;99.90
23371;DHT22;11858;51.056;3.712;2023-05-07T06:03:01;15.70;99.90
23371;DHT22;11858;51.056;3.712;2023-05-07T06:05:27;15.80;99.90
23371;DHT22;11858;51.056;3.712;2023-05-07T06:07:53;15.80;99.90
23371;DHT22;11858;51.056;3.712;2023-05-07T06:10:18;15.60;99.90
23371;DHT22;11858;51.056;3.712;2023-05-07T06:12:44;15.50;99.90
23371;DHT22;11858;51.056;3.712;2023-05-07T06:15:10;15.50;99.90
23371;DHT22;11858;51.056;3.712;2023-05-07T06:17:36;15.40;99.90
23371;DHT22;11858;51.056;3.712;2023-05-07T06:20:01;15.40;99.90
23371;DHT22;11858;51.056;3.712;2023-05-07T06:22:27;15.40;99.90
23371;DHT22;11858;51.056;3.712;2023-05-07T06:24:53;15.50;99.90
23371;DHT22;11858;51.056;3.712;2023-05-07T06:27:18;15.60;99.90
23371;DHT22;11858;51.056;3.712;2023-05-07T06:29:44;15.50;99.90
23371;DHT22;11858;51.056;3.712;2023-05-07T06:32:11;15.50;99.90
23371;DHT22;11858;51.056;3.712;2023-05-07T06:34:37;15.50;99.90
23371;DHT22;11858;51.056;3.712;2023-05-07T06:37:03;15.40;99.90
23371;DHT22;11858;51.056;3.712;2023-05-07T06:39:29;15.40;99.90
23371;DHT22;11858;51.056;3.712;2023-05-07T06:41:55;15.40;99.90
23371;DHT22;11858;51.056;3.712;2023-05-07T06:44:20;15.50;99.90
23371;DHT22;11858;51.056;3.712;2023-05-07T06:46:46;15.60;99.90
23371;DHT22;11858;51.056;3.712;2023-05-07T06:49:15;15.70;99.90
23371;DHT22;11858;51.056;3.712;2023-05-07T06:51:41;15.70;99.90
23371;DHT22;11858;51.056;3.712;2023-05-07T06:54:07;15.70;99.90
23371;DHT22;11858;51.056;3.712;2023-05-07T06:56:33;15.60;99.90
23371;DHT22;11858;51.056;3.712;2023-05-07T06:59:00;15.60;99.90
23371;DHT22;11858;51.056;3.712;2023-05-07T07:01:26;15.60;99.90
23371;DHT22;11858;51.056;3.712;2023-05-07T07:03:51;15.50;99.90
23371;DHT22;11858;51.056;3.712;2023-05-07T07:06:17;15.60;99.90
23371;DHT22;11858;51.056;3.712;2023-05-07T07:08:42;15.60;99.90
23371;DHT22;11858;51.056;3.712;2023-05-07T07:11:09;15.70;99.90
23371;DHT22;11858;51.056;3.712;2023-05-07T07:13:35;15.70;99.90
23371;DHT22;11858;51.056;3.712;2023-05-07T07:16:01;15.60;99.90
23371;DHT22;11858;51.056;3.712;2023-05-07T07:18:27;15.70;99.90
23371;DHT22;11858;51.056;3.712;2023-05-07T07:20:52;15.70;99.90
23371;DHT22;11858;51.056;3.712;2023-05-07T07:23:18;15.80;99.90
23371;DHT22;11858;51.056;3.712;2023-05-07T07:25:44;15.80;99.90
23371;DHT22;11858;51.056;3.712;2023-05-07T07:28:10;15.80;99.90
23371;DHT22;11858;51.056;3.712;2023-05-07T07:30:37;15.90;99.90
23371;DHT22;11858;51.056;3.712;2023-05-07T07:33:03;15.90;99.90
23371;DHT22;11858;51.056;3.712;2023-05-07T07:35:32;15.80;99.90
23371;DHT22;11858;51.056;3.712;2023-05-07T07:37:58;15.80;99.90
23371;DHT22;11858;51.056;3.712;2023-05-07T07:40:24;15.80;99.90
23371;DHT22;11858;51.056;3.712;2023-05-07T07:42:50;15.70;99.90
23371;DHT22;11858;51.056;3.712;2023-05-07T07:45:16;15.70;99.90
23371;DHT22;11858;51.056;3.712;2023-05-07T07:47:42;15.70;99.90
23371;DHT22;11858;51.056;3.712;2023-05-07T07:50:08;15.80;99.90
23371;DHT22;11858;51.056;3.712;2023-05-07T07:52:34;15.90;99.90
23371;DHT22;11858;51.056;3.712;2023-05-07T07:55:00;15.80;99.90
23371;DHT22;11858;51.056;3.712;2023-05-07T07:57:26;15.80;99.90
23371;DHT22;11858;51.056;3.712;2023-05-07T07:59:51;15.70;99.90
23371;DHT22;11858;51.056;3.712;2023-05-07T08:02:17;15.70;99.90
23371;DHT22;11858;51.056;3.712;2023-05-07T08:04:43;15.80;99.90
23371;DHT22;11858;51.056;3.712;2023-05-07T08:07:12;15.80;99.90
23371;DHT22;11858;51.056;3.712;2023-05-07T08:09:38;15.90;99.90
23371;DHT22;11858;51.056;3.712;2023-05-07T08:12:05;15.70;99.90
23371;DHT22;11858;51.056;3.712;2023-05-07T08:14:31;15.60;99.90
23371;DHT22;11858;51.056;3.712;2023-05-07T08:16:57;15.70;99.90
23371;DHT22;11858;51.056;3.712;2023-05-07T08:19:22;15.70;99.90
23371;DHT22;11858;51.056;3.712;2023-05-07T08:21:48;15.70;99.90
23371;DHT22;11858;51.056;3.712;2023-05-07T08:24:14;15.80;99.90
23371;DHT22;11858;51.056;3.712;2023-05-07T08:26:40;15.80;99.90
23371;DHT22;11858;51.056;3.712;2023-05-07T08:29:06;15.90;99.90
23371;DHT22;11858;51.056;3.712;2023-05-07T08:31:32;15.90;99.90
23371;DHT22;11858;51.056;3.712;2023-05-07T08:33:58;15.90;99.90
23371;DHT22;11858;51.056;3.712;2023-05-07T08:36:25;15.90;99.90
23371;DHT22;11858;51.056;3.712;2023-05-07T08:38:51;15.90;99.90
23371;DHT22;11858;51.056;3.712;2023-05-07T08:41:17;16.00;99.90
23371;DHT22;11858;51.056;3.712;2023-05-07T08:43:47;16.20;99.90
23371;DHT22;11858;51.056;3.712;2023-05-07T08:46:19;16.20;99.90
23371;DHT22;11858;51.056;3.712;2023-05-07T08:48:48;16.20;99.90
23371;DHT22;11858;51.056;3.712;2023-05-07T08:51:18;16.30;99.90
23371;DHT22;11858;51.056;3.712;2023-05-07T08:53:45;16.40;99.90
23371;DHT22;11858;51.056;3.712;2023-05-07T08:56:11;16.30;99.90
23371;DHT22;11858;51.056;3.712;2023-05-07T08:58:37;16.20;99.90
23371;DHT22;11858;51.056;3.712;2023-05-07T09:01:07;16.20;99.90
23371;DHT22;11858;51.056;3.712;2023-05-07T09:03:33;16.30;99.90
23371;DHT22;11858;51.056;3.712;2023-05-07T09:05:59;16.40;99.90
23371;DHT22;11858;51.056;3.712;2023-05-07T09:08:26;16.60;99.90
23371;DHT22;11858;51.056;3.712;2023-05-07T09:10:52;16.60;99.90
23371;DHT22;11858;51.056;3.712;2023-05-07T09:13:19;16.70;99.90
23371;DHT22;11858;51.056;3.712;2023-05-07T09:15:45;16.70;99.90
23371;DHT22;11858;51.056;3.712;2023-05-07T09:18:11;16.60;99.90
23371;DHT22;11858;51.056;3.712;2023-05-07T09:20:37;16.70;99.90
23371;DHT22;11858;51.056;3.712;2023-05-07T09:23:03;16.70;99.90
23371;DHT22;11858;51.056;3.712;2023-05-07T09:25:31;16.80;99.90
23371;DHT22;11858;51.056;3.712;2023-05-07T09:27:57;16.80;99.90
23371;DHT22;11858;51.056;3.712;2023-05-07T09:30:22;16.80;99.90
23371;DHT22;11858;51.056;3.712;2023-05-07T09:32:48;16.90;99.90
23371;DHT22;11858;51.056;3.712;2023-05-07T09:35:17;17.00;99.90
23371;DHT22;11858;51.056;3.712;2023-05-07T09:37:43;17.00;99.90
23371;DHT22;11858;51.056;3.712;2023-05-07T09:40:23;17.20;99.90
23371;DHT22;11858;51.056;3.712;2023-05-07T09:42:49;17.20;99.90
23371;DHT22;11858;51.056;3.712;2023-05-07T09:45:16;17.00;99.90
23371;DHT22;11858;51.056;3.712;2023-05-07T09:47:48;17.10;99.90
23371;DHT22;11858;51.056;3.712;2023-05-07T09:50:16;17.40;99.90
23371;DHT22;11858;51.056;3.712;2023-05-07T09:52:42;17.50;99.90
23371;DHT22;11858;51.056;3.712;2023-05-07T09:55:09;17.50;99.90
23371;DHT22;11858;51.056;3.712;2023-05-07T09:57:36;17.40;99.90
23371;DHT22;11858;51.056;3.712;2023-05-07T10:00:03;17.60;99.90
23371;DHT22;11858;51.056;3.712;2023-05-07T10:02:35;17.80;99.90
23371;DHT22;11858;51.056;3.712;2023-05-07T10:05:02;18.00;99.90
23371;DHT22;11858;51.056;3.712;2023-05-07T10:07:31;17.90;99.90
23371;DHT22;11858;51.056;3.712;2023-05-07T10:09:57;17.90;99.90
23371;DHT22;11858;51.056;3.712;2023-05-07T10:12:24;17.90;99.90
23371;DHT22;11858;51.056;3.712;2023-05-07T10:14:51;18.20;99.90
23371;DHT22;11858;51.056;3.712;2023-05-07T10:17:18;18.60;99.90
23371;DHT22;11858;51.056;3.712;2023-05-07T10:19:45;18.60;99.90
23371;DHT22;11858;51.056;3.712;2023-05-07T10:22:11;18.80;99.90
23371;DHT22;11858;51.056;3.712;2023-05-07T10:24:39;18.80;99.90
23371;DHT22;11858;51.056;3.712;2023-05-07T10:27:10;18.70;99.90
23371;DHT22;11858;51.056;3.712;2023-05-07T10:29:41;18.50;99.90
23371;DHT22;11858;51.056;3.712;2023-05-07T10:34:55;18.40;99.90
23371;DHT22;11858;51.056;3.712;2023-05-07T10:37:22;18.60;99.90
23371;DHT22;11858;51.056;3.712;2023-05-07T10:39:48;18.90;99.90
23371;DHT22;11858;51.056;3.712;2023-05-07T10:42:15;19.30;99.90
23371;DHT22;11858;51.056;3.712;2023-05-07T10:44:40;19.50;99.90
23371;DHT22;11858;51.056;3.712;2023-05-07T10:47:08;19.80;99.90
23371;DHT22;11858;51.056;3.712;2023-05-07T10:52:22;19.90;99.90
23371;DHT22;11858;51.056;3.712;2023-05-07T10:55:18;20.10;99.90
23371;DHT22;11858;51.056;3.712;2023-05-07T10:57:45;20.00;99.90
23371;DHT22;11858;51.056;3.712;2023-05-07T11:05:26;20.00;99.90
23371;DHT22;11858;51.056;3.712;2023-05-07T11:07:59;19.90;99.90
23371;DHT22;11858;51.056;3.712;2023-05-07T11:10:51;19.90;99.90
23371;DHT22;11858;51.056;3.712;2023-05-07T11:13:18;19.90;99.90
23371;DHT22;11858;51.056;3.712;2023-05-07T11:15:47;19.70;99.90
23371;DHT22;11858;51.056;3.712;2023-05-07T11:18:15;19.50;99.90
23371;DHT22;11858;51.056;3.712;2023-05-07T11:28:39;19.80;99.90
23371;DHT22;11858;51.056;3.712;2023-05-07T11:31:05;19.70;99.90
23371;DHT22;11858;51.056;3.712;2023-05-07T11:33:31;19.70;99.90
23371;DHT22;11858;51.056;3.712;2023-05-07T11:35:58;19.70;99.90
23371;DHT22;11858;51.056;3.712;2023-05-07T11:38:25;19.80;99.90
23371;DHT22;11858;51.056;3.712;2023-05-07T11:40:52;19.80;99.90
23371;DHT22;11858;51.056;3.712;2023-05-07T11:43:18;19.90;99.90
23371;DHT22;11858;51.056;3.712;2023-05-07T11:45:45;20.30;99.90
23371;DHT22;11858;51.056;3.712;2023-05-07T11:48:13;20.40;99.90
23371;DHT22;11858;51.056;3.712;2023-05-07T11:50:51;20.40;99.90
23371;DHT22;11858;51.056;3.712;2023-05-07T11:53:18;20.60;99.90
23371;DHT22;11858;51.056;3.712;2023-05-07T11:55:45;20.60;99.90
23371;DHT22;11858;51.056;3.712;2023-05-07T11:58:12;20.60;99.90
23371;DHT22;11858;51.056;3.712;2023-05-07T12:00:38;20.50;99.90
23371;DHT22;11858;51.056;3.712;2023-05-07T12:03:06;20.40;99.90
23371;DHT22;11858;51.056;3.712;2023-05-07T12:05:32;20.30;99.90
23371;DHT22;11858;51.056;3.712;2023-05-07T12:07:58;20.40;99.90
23371;DHT22;11858;51.056;3.712;2023-05-07T12:10:23;20.50;99.90
23371;DHT22;11858;51.056;3.712;2023-05-07T12:12:50;21.00;99.90
23371;DHT22;11858;51.056;3.712;2023-05-07T12:15:17;21.40;99.90
23371;DHT22;11858;51.056;3.712;2023-05-07T12:17:43;22.00;99.90
23371;DHT22;11858;51.056;3.712;2023-05-07T12:20:09;22.20;99.90
23371;DHT22;11858;51.056;3.712;2023-05-07T12:22:36;22.20;99.90
23371;DHT22;11858;51.056;3.712;2023-05-07T12:25:02;22.00;99.90
23371;DHT22;11858;51.056;3.712;2023-05-07T12:27:28;21.90;99.90
23371;DHT22;11858;51.056;3.712;2023-05-07T12:29:54;22.30;99.90
23371;DHT22;11858;51.056;3.712;2023-05-07T12:32:21;22.20;99.90
23371;DHT22;11858;51.056;3.712;2023-05-07T12:34:50;22.50;99.90
23371;DHT22;11858;51.056;3.712;2023-05-07T12:37:16;22.70;99.90
23371;DHT22;11858;51.056;3.712;2023-05-07T12:39:48;22.70;99.90
23371;DHT22;11858;51.056;3.712;2023-05-07T12:42:15;22.80;99.90
23371;DHT22;11858;51.056;3.712;2023-05-07T12:44:41;22.90;99.90
23371;DHT22;11858;51.056;3.712;2023-05-07T12:47:10;23.10;99.90
23371;DHT22;11858;51.056;3.712;2023-05-07T12:49:36;23.70;99.90
23371;DHT22;11858;51.056;3.712;2023-05-07T12:52:05;24.10;99.90
23371;DHT22;11858;51.056;3.712;2023-05-07T12:54:37;23.90;99.90
23371;DHT22;11858;51.056;3.712;2023-05-07T12:57:05;24.00;99.90
23371;DHT22;11858;51.056;3.712;2023-05-07T12:59:38;24.20;99.90
23371;DHT22;11858;51.056;3.712;2023-05-07T13:02:05;24.10;99.90
23371;DHT22;11858;51.056;3.712;2023-05-07T13:04:31;24.20;99.90
23371;DHT22;11858;51.056;3.712;2023-05-07T13:06:57;23.80;99.90
23371;DHT22;11858;51.056;3.712;2023-05-07T13:09:23;23.80;99.90
23371;DHT22;11858;51.056;3.712;2023-05-07T13:11:48;24.00;99.90
23371;DHT22;11858;51.056;3.712;2023-05-07T13:14:14;23.80;99.90
23371;DHT22;11858;51.056;3.712;2023-05-07T13:16:40;23.90;99.90
23371;DHT22;11858;51.056;3.712;2023-05-07T13:19:05;24.40;99.90
23371;DHT22;11858;51.056;3.712;2023-05-07T13:21:31;24.30;99.90
23371;DHT22;11858;51.056;3.712;2023-05-07T13:23:58;24.20;99.90
23371;DHT22;11858;51.056;3.712;2023-05-07T13:26:24;24.40;99.90
23371;DHT22;11858;51.056;3.712;2023-05-07T13:28:50;24.30;99.90
23371;DHT22;11858;51.056;3.712;2023-05-07T13:31:17;24.10;99.90
23371;DHT22;11858;51.056;3.712;2023-05-07T13:33:43;24.40;99.90
23371;DHT22;11858;51.056;3.712;2023-05-07T13:36:08;24.20;99.90
23371;DHT22;11858;51.056;3.712;2023-05-07T13:38:34;24.20;99.90
23371;DHT22;11858;51.056;3.712;2023-05-07T13:41:00;24.40;99.90
23371;DHT22;11858;51.056;3.712;2023-05-07T13:43:26;24.40;99.90
23371;DHT22;11858;51.056;3.712;2023-05-07T13:45:51;24.10;99.90
23371;DHT22;11858;51.056;3.712;2023-05-07T13:48:17;24.30;99.90
23371;DHT22;11858;51.056;3.712;2023-05-07T13:50:43;23.80;99.90
23371;DHT22;11858;51.056;3.712;2023-05-07T13:53:08;23.50;99.90
23371;DHT22;11858;51.056;3.712;2023-05-07T13:55:34;23.30;99.90
23371;DHT22;11858;51.056;3.712;2023-05-07T13:58:01;23.20;99.90
23371;DHT22;11858;51.056;3.712;2023-05-07T14:00:29;22.80;99.90
23371;DHT22;11858;51.056;3.712;2023-05-07T14:02:55;22.50;99.90
23371;DHT22;11858;51.056;3.712;2023-05-07T14:05:22;22.00;99.90
23371;DHT22;11858;51.056;3.712;2023-05-07T14:07:54;21.70;99.90
23371;DHT22;11858;51.056;3.712;2023-05-07T14:10:20;21.70;99.90
23371;DHT22;11858;51.056;3.712;2023-05-07T14:12:46;21.60;99.90
23371;DHT22;11858;51.056;3.712;2023-05-07T14:15:12;21.30;99.90
23371;DHT22;11858;51.056;3.712;2023-05-07T14:17:38;21.10;99.90
23371;DHT22;11858;51.056;3.712;2023-05-07T14:20:04;21.00;99.90
23371;DHT22;11858;51.056;3.712;2023-05-07T14:22:32;20.90;99.90
23371;DHT22;11858;51.056;3.712;2023-05-07T14:24:58;20.80;99.90
23371;DHT22;11858;51.056;3.712;2023-05-07T14:27:24;20.50;99.90
23371;DHT22;11858;51.056;3.712;2023-05-07T14:29:49;20.30;99.90
23371;DHT22;11858;51.056;3.712;2023-05-07T14:32:19;20.10;99.90
23371;DHT22;11858;51.056;3.712;2023-05-07T14:34:45;19.70;99.90
23371;DHT22;11858;51.056;3.712;2023-05-07T14:37:13;19.50;99.90
23371;DHT22;11858;51.056;3.712;2023-05-07T14:39:39;19.30;99.90
23371;DHT22;11858;51.056;3.712;2023-05-07T14:42:05;19.30;99.90
23371;DHT22;11858;51.056;3.712;2023-05-07T14:44:35;19.00;99.90
23371;DHT22;11858;51.056;3.712;2023-05-07T14:47:01;18.90;99.90
23371;DHT22;11858;51.056;3.712;2023-05-07T14:49:27;18.70;99.90
23371;DHT22;11858;51.056;3.712;2023-05-07T14:51:53;18.60;99.90
23371;DHT22;11858;51.056;3.712;2023-05-07T14:54:19;18.60;99.90
23371;DHT22;11858;51.056;3.712;2023-05-07T14:56:45;18.60;99.90
23371;DHT22;11858;51.056;3.712;2023-05-07T14:59:10;18.60;99.90
23371;DHT22;11858;51.056;3.712;2023-05-07T15:01:36;18.60;99.90
23371;DHT22;11858;51.056;3.712;2023-05-07T15:04:05;18.60;99.90
23371;DHT22;11858;51.056;3.712;2023-05-07T15:06:31;18.70;99.90
23371;DHT22;11858;51.056;3.712;2023-05-07T15:08:57;18.90;99.90
23371;DHT22;11858;51.056;3.712;2023-05-07T15:11:23;18.90;99.90
23371;DHT22;11858;51.056;3.712;2023-05-07T15:13:49;19.00;99.90
23371;DHT22;11858;51.056;3.712;2023-05-07T15:16:15;19.10;99.90
23371;DHT22;11858;51.056;3.712;2023-05-07T15:18:42;19.20;99.90
23371;DHT22;11858;51.056;3.712;2023-05-07T15:21:08;19.50;99.90
23371;DHT22;11858;51.056;3.712;2023-05-07T15:23:33;19.90;99.90
23371;DHT22;11858;51.056;3.712;2023-05-07T15:25:59;20.20;99.90
23371;DHT22;11858;51.056;3.712;2023-05-07T15:28:26;20.30;99.90
23371;DHT22;11858;51.056;3.712;2023-05-07T15:30:54;20.60;99.90
23371;DHT22;11858;51.056;3.712;2023-05-07T15:33:20;20.90;99.90
23371;DHT22;11858;51.056;3.712;2023-05-07T15:35:45;20.80;99.90
23371;DHT22;11858;51.056;3.712;2023-05-07T15:38:11;21.10;99.90
23371;DHT22;11858;51.056;3.712;2023-05-07T15:40:38;21.00;99.90
23371;DHT22;11858;51.056;3.712;2023-05-07T15:43:08;20.90;99.90
23371;DHT22;11858;51.056;3.712;2023-05-07T15:45:41;20.70;99.90